TimeCST,TemperatureF,Dew PointF,Humidity,Sea Level PressureIn,VisibilityMPH,Wind Direction,Wind SpeedMPH,Gust SpeedMPH,PrecipitationIn,Events,Conditions,WindDirDegrees,DateUTC
12:15 AM,23.0,17.6,80,29.52,7.0,WNW,15.0,-,N/A,Snow,Light Snow,300,2014-02-14 06:15:00
12:35 AM,23.0,17.6,80,29.52,7.0,NW,16.1,23.0,N/A,Snow,Light Snow,310,2014-02-14 06:35:00
12:55 AM,21.2,12.2,68,29.54,10.0,NW,18.4,-,N/A,,Overcast,310,2014-02-14 06:55:00
1:15 AM,19.4,10.4,68,29.54,10.0,WNW,13.8,-,N/A,,Scattered Clouds,290,2014-02-14 07:15:00
1:35 AM,19.4,12.2,74,29.55,10.0,WNW,13.8,21.9,N/A,,Clear,300,2014-02-14 07:35:00
1:55 AM,17.6,10.4,73,29.55,10.0,WNW,13.8,-,N/A,,Clear,300,2014-02-14 07:55:00
2:15 AM,15.8,10.4,79,29.55,10.0,WNW,12.7,-,N/A,,Clear,300,2014-02-14 08:15:00
2:35 AM,15.8,10.4,79,29.55,10.0,WNW,12.7,-,N/A,,Clear,300,2014-02-14 08:35:00
2:55 AM,15.8,10.4,79,29.56,10.0,WNW,12.7,-,N/A,,Clear,290,2014-02-14 08:55:00
3:15 AM,14.0,8.6,79,29.56,10.0,WNW,12.7,-,N/A,,Clear,300,2014-02-14 09:15:00
3:35 AM,12.2,6.8,79,29.56,10.0,WNW,10.4,-,N/A,,Clear,290,2014-02-14 09:35:00
3:55 AM,12.2,6.8,79,29.56,10.0,West,11.5,-,N/A,,Clear,280,2014-02-14 09:55:00
4:15 AM,10.4,5.0,79,29.58,10.0,West,10.4,-,N/A,,Clear,280,2014-02-14 10:15:00
4:35 AM,12.2,6.8,79,29.59,10.0,WNW,16.1,-,N/A,,Clear,300,2014-02-14 10:35:00
4:55 AM,12.2,6.8,79,29.60,10.0,WNW,11.5,-,N/A,,Clear,290,2014-02-14 10:55:00
5:15 AM,12.2,6.8,79,29.60,10.0,WNW,13.8,-,N/A,,Clear,300,2014-02-14 11:15:00
5:25 AM,10.4,6.8,85,29.60,10.0,WNW,12.7,-,N/A,,Clear,300,2014-02-14 11:25:00
5:45 AM,10.4,5.0,79,29.60,10.0,WNW,12.7,-,N/A,,Clear,300,2014-02-14 11:45:00
6:45 AM,10.4,3.2,73,29.61,10.0,WNW,15.0,-,N/A,,Scattered Clouds,300,2014-02-14 12:45:00
7:45 AM,10.4,3.2,73,29.65,10.0,NW,11.5,-,N/A,,Scattered Clouds,310,2014-02-14 13:45:00
8:45 AM,12.2,3.2,67,29.66,10.0,NNW,16.1,-,N/A,,Scattered Clouds,330,2014-02-14 14:45:00
9:45 AM,12.2,3.2,67,29.69,10.0,NW,11.5,20.7,N/A,,Scattered Clouds,320,2014-02-14 15:45:00
10:12 AM,15.8,3.2,58,29.71,10.0,NNW,13.8,-,N/A,,Mostly Cloudy,330,2014-02-14 16:12:00
10:21 AM,15.8,3.2,58,29.71,10.0,NNW,11.5,-,N/A,,Mostly Cloudy,330,2014-02-14 16:21:00
10:45 AM,15.8,3.2,58,29.72,10.0,NNW,16.1,-,N/A,,Mostly Cloudy,330,2014-02-14 16:45:00
11:45 AM,-9999,-9999,N/A,29.72,10.0,NNW,13.8,-,N/A,,Scattered Clouds,330,2014-02-14 17:45:00
12:45 PM,19.4,6.8,58,29.72,10.0,NW,10.4,-,N/A,,Partly Cloudy,320,2014-02-14 18:45:00
1:45 PM,21.2,8.6,58,29.73,10.0,NNW,10.4,-,N/A,,Partly Cloudy,330,2014-02-14 19:45:00
2:45 PM,23.0,8.6,54,29.75,10.0,NW,8.1,-,N/A,,Partly Cloudy,320,2014-02-14 20:45:00
3:45 PM,23.0,8.6,54,29.76,10.0,NW,8.1,-,N/A,,Partly Cloudy,320,2014-02-14 21:45:00
4:45 PM,21.2,8.6,58,29.79,10.0,NW,9.2,-,N/A,,Clear,310,2014-02-14 22:45:00
5:45 PM,17.6,6.8,63,29.82,10.0,NW,9.2,-,N/A,,Clear,310,2014-02-14 23:45:00
6:45 PM,15.8,5.0,62,29.84,10.0,WNW,9.2,-,N/A,,Clear,290,2014-02-15 00:45:00
7:45 PM,12.2,3.2,67,29.87,10.0,North,9.2,-,N/A,,Clear,390,2014-02-15 01:45:00
8:45 PM,10.4,1.4,67,29.89,10.0,WNW,10.4,-,N/A,,Clear,290,2014-02-15 02:45:00
9:45 PM,8.6,1.4,73,29.90,10.0,NW,9.2,-,N/A,,Clear,320,2014-02-15 03:45:00
10:45 PM,8.6,1.4,73,29.92,10.0,NNW,9.2,-,N/A,,Clear,330,2014-02-15 04:45:00
11:15 PM,8.6,1.4,73,29.93,10.0,NNW,8.1,-,N/A,,Clear,330,2014-02-15 05:15:00
11:35 PM,8.6,1.4,73,29.95,10.0,NNW,8.1,-,N/A,,Clear,330,2014-02-15 05:35:00
11:55 PM,6.8,-0.4,72,29.94,10.0,NNW,6.9,-,N/A,,Clear,340,2014-02-15 05:55:00